Kirsehir, Turkey

4:52 PM EEST on May 22, 2015 (GMT +0300)
Kapadokya | | Change Station
CLOSE
Current Station
Airport
Location: Nevsehir,
Elevation: 3100 ft
Nearby Weather Stations

Elev 3100 ft 38.77 °N, 34.53 °E | Updated 32 minutes ago

Mostly Cloudy
Mostly Cloudy
81 °F
Feels Like 81 °F
N
2
Wind Variable Wind from Variable

Today
High -- | Low -- °F
--% Chance of Precip.
Yesterday
High -- | Low -- °F
Precip. -- in
5:25 AM 7:55 PM
Waxing Crescent, 21% visible
Pressure 29.83 in
Visibility 6.2 miles
Clouds Few 3000 ft
Mostly Cloudy 3500 ft
Dew Point 39 °F
Humidity 23%
Rainfall 0.00 in
Snow Depth Not available.
UV 3 out of 12
Pollen Not available.
Air Quality Not available.
Flu Activity Not available.
METAR LTAZ 221320Z VRB02KT 9999 FEW030CB BKN035 27/04 Q1010

More Conditions Fewer Conditions

Pressure 29.83 in
Visibility 6.2 miles
Clouds Few 3000 ft
Mostly Cloudy 3500 ft
Dew Point 39 °F
Humidity 23%
Rainfall 0.00 in
Snow Depth Not available.
UV 3 out of 12
Pollen Not available.
Air Quality Not available.
Flu Activity Not available.
METAR LTAZ 221320Z VRB02KT 9999 FEW030CB BKN035 27/04 Q1010

More Conditions Fewer Conditions

10-Day Weather Forecast

Almanac

Astronomy

May. 22, 2015 Rise Set
Actual Time
Civil Twilight
Nautical Twilight
Astronomical Twilight
Moon
Length of Visible Light
Length of Day
Tomorrow will be .
, % of the Moon is Illuminated

Today's Extremes

Country Highs Country Lows

Community

WunderPhotos

Upload Photos

1,823,217 photos uploaded!

WunderBlogs® & News

Nearby

Air Quality

  Air Quality AQ Index Pollutant
Not available.

Snow Depth

Station Depth Elevation

Earthquake Activity

City Distance Mag. Time & Date
Minimum magnitude displayed is 2.5.

Coastal Water Temperatures

Place Temperature

Stations

Nearby Weather Stations

Station Location Temp. Windchill Dew Point Humidity Wind Precip. Elev Updated Type